Etusivu
METAR-TAF:

METAR-TAF

Lentoasemat :

Lampedusan lentoasema

Lampedusa, Italia

Leveyspiiri: 35-30N, Pituuspiiri: 012-36E, korkeus merenpinnasta: 16 m

Tämänhetkinen sää

Tämä raportti tehtiin 24 minuuttia sitten, kello 13.20 UTC
Tuuli 7 kn idästä
Lämpötila 28°C
Kosteus 74%
Ilmanpaine 1016 hPa
Näkyvyys 10 km tai enemmän

METAR: LICD 251320Z AUTO 08007KT 9999 NCD 28/23 Q1016

Aika: 15:44 (13:44 UTC)

Sääennuste

Tämä raportti tehtiin 2 tuntia ja 44 minuuttia sitten, kello 11.00 UTC
Ennuste voimassa 25. päivästä klo 12 UTC - 26. päivään klo 12 UTC
Tuuli 15 kn pohjoisesta/koillisesta
Näkyvyys 10 km tai enemmän
Muutamia pilviä 4000 ft:n korkeudessa
Tulossa
25. päivästä klo 12 UTC - 25. päivään klo 14 UTC
Tuuli 10 kn etelästä/kaakosta
Tulossa
26. päivästä klo 02 UTC - 26. päivään klo 04 UTC
Tuuli 15 kn pohjoisesta

TAF: LICD 251100Z 2512/2612 03015KT 9999 FEW040 BECMG 2512/2514 15010KT BECMG 2602/2604 35015KT

Säähavainnot ja -ennusteet yli 4000 lentoasemalta (METAR- ja TAF-raportit).

Käytössä olevat sääasemat on merkitty karttaan keltaisilla ja punaisilla pisteillä.

Aseta hiiri pisteen päälle nähdäksesi sääaseman nimen.

Klikkaa sitten nähdäksesi säähavainnot ja -ennusteet.

Kartan vaihtaminen: klikkaa mustalla rastilla varustettuja vihreitä pisteitä, niin voit zoomata sisään; viivalla varustettua vihreää pistettä, niin voit zoomata ulos tai vihreitä nuolia, niin pääset viereisille kartoille.


METAR-TAF: